sensor_id;sensor_type;location;lat;lon;timestamp;pressure;altitude;pressure_sealevel;temperature;humidity
57086;BME280;42964;42.910;23.792;2023-02-19T00:04:21;97718.84;;;13.40;35.27
57086;BME280;42964;42.910;23.792;2023-02-19T00:09:20;97763.19;;;14.04;35.19
57086;BME280;42964;42.910;23.792;2023-02-19T00:14:19;97764.91;;;14.05;34.85
57086;BME280;42964;42.910;23.792;2023-02-19T00:19:19;97761.03;;;14.29;34.29
57086;BME280;42964;42.910;23.792;2023-02-19T00:24:20;97767.94;;;14.34;34.29
57086;BME280;42964;42.910;23.792;2023-02-19T00:29:20;97757.66;;;14.24;34.42
57086;BME280;42964;42.910;23.792;2023-02-19T00:34:19;97766.25;;;14.29;34.43
57086;BME280;42964;42.910;23.792;2023-02-19T00:39:18;97753.19;;;14.30;34.47
57086;BME280;42964;42.910;23.792;2023-02-19T00:44:18;97766.47;;;14.16;35.01
57086;BME280;42964;42.910;23.792;2023-02-19T00:49:19;97755.69;;;13.79;35.81
57086;BME280;42964;42.910;23.792;2023-02-19T00:54:18;97762.84;;;13.65;36.11
57086;BME280;42964;42.910;23.792;2023-02-19T00:59:17;97749.63;;;13.78;35.98
57086;BME280;42964;42.910;23.792;2023-02-19T01:04:16;97703.78;;;13.64;35.81
57086;BME280;42964;42.910;23.792;2023-02-19T01:09:15;97754.91;;;13.72;36.41
57086;BME280;42964;42.910;23.792;2023-02-19T01:14:14;97768.25;;;13.48;36.99
57086;BME280;42964;42.910;23.792;2023-02-19T01:19:12;97790.91;;;13.41;37.24
57086;BME280;42964;42.910;23.792;2023-02-19T01:24:11;97808.50;;;13.21;38.00
57086;BME280;42964;42.910;23.792;2023-02-19T01:29:10;97812.25;;;12.98;38.14
57086;BME280;42964;42.910;23.792;2023-02-19T01:34:10;97801.75;;;13.04;38.15
57086;BME280;42964;42.910;23.792;2023-02-19T01:39:10;97799.19;;;13.00;37.94
57086;BME280;42964;42.910;23.792;2023-02-19T01:54:12;97794.81;;;13.02;38.20
57086;BME280;42964;42.910;23.792;2023-02-19T01:59:15;97790.59;;;12.91;38.42
57086;BME280;42964;42.910;23.792;2023-02-19T02:04:14;97780.31;;;12.79;39.42
57086;BME280;42964;42.910;23.792;2023-02-19T02:09:16;97783.22;;;12.41;39.64
57086;BME280;42964;42.910;23.792;2023-02-19T02:14:39;97784.97;;;12.40;39.52
57086;BME280;42964;42.910;23.792;2023-02-19T02:35:25;97792.66;;;12.54;39.72
57086;BME280;42964;42.910;23.792;2023-02-19T02:40:26;97791.00;;;12.45;39.67
57086;BME280;42964;42.910;23.792;2023-02-19T02:45:30;97810.91;;;12.48;39.22
57086;BME280;42964;42.910;23.792;2023-02-19T02:56:08;97814.34;;;12.53;39.12
57086;BME280;42964;42.910;23.792;2023-02-19T03:01:18;97819.47;;;12.62;38.65
57086;BME280;42964;42.910;23.792;2023-02-19T03:06:37;97827.28;;;12.65;38.66
57086;BME280;42964;42.910;23.792;2023-02-19T03:11:39;97821.06;;;12.79;39.03
57086;BME280;42964;42.910;23.792;2023-02-19T03:22:37;97790.28;;;12.23;39.14
57086;BME280;42964;42.910;23.792;2023-02-19T03:27:40;97849.03;;;12.55;39.05
57086;BME280;42964;42.910;23.792;2023-02-19T03:37:59;97628.06;;;11.07;39.28
57086;BME280;42964;42.910;23.792;2023-02-19T03:43:16;97865.63;;;12.39;39.33
57086;BME280;42964;42.910;23.792;2023-02-19T03:48:26;97862.25;;;12.27;39.47
57086;BME280;42964;42.910;23.792;2023-02-19T03:59:32;97867.50;;;12.18;39.74
57086;BME280;42964;42.910;23.792;2023-02-19T04:04:38;97870.94;;;12.17;40.04
57086;BME280;42964;42.910;23.792;2023-02-19T04:09:43;97858.81;;;12.13;39.85
57086;BME280;42964;42.910;23.792;2023-02-19T04:14:57;97854.59;;;11.94;40.24
57086;BME280;42964;42.910;23.792;2023-02-19T04:19:59;97871.13;;;11.83;39.92
57086;BME280;42964;42.910;23.792;2023-02-19T04:25:02;97868.56;;;11.66;41.11
57086;BME280;42964;42.910;23.792;2023-02-19T04:30:01;97874.69;;;11.50;42.18
57086;BME280;42964;42.910;23.792;2023-02-19T04:35:00;97873.03;;;11.15;42.94
57086;BME280;42964;42.910;23.792;2023-02-19T04:39:59;97888.63;;;11.01;42.33
57086;BME280;42964;42.910;23.792;2023-02-19T04:44:58;97899.00;;;10.75;43.68
57086;BME280;42964;42.910;23.792;2023-02-19T04:49:57;97901.53;;;10.43;44.14
57086;BME280;42964;42.910;23.792;2023-02-19T04:54:55;97920.50;;;10.20;44.88
57086;BME280;42964;42.910;23.792;2023-02-19T04:59:54;97935.06;;;9.88;45.72
57086;BME280;42964;42.910;23.792;2023-02-19T05:04:53;97931.59;;;9.86;44.93
57086;BME280;42964;42.910;23.792;2023-02-19T05:09:52;97942.00;;;9.89;45.61
57086;BME280;42964;42.910;23.792;2023-02-19T05:14:51;97944.53;;;9.75;46.17
57086;BME280;42964;42.910;23.792;2023-02-19T05:19:50;97954.81;;;9.61;46.10
57086;BME280;42964;42.910;23.792;2023-02-19T05:24:49;97945.19;;;9.46;46.84
57086;BME280;42964;42.910;23.792;2023-02-19T05:29:48;97931.97;;;9.11;47.42
57086;BME280;42964;42.910;23.792;2023-02-19T05:34:47;97951.84;;;9.15;47.59
57086;BME280;42964;42.910;23.792;2023-02-19T05:39:47;97959.56;;;9.07;47.75
57086;BME280;42964;42.910;23.792;2023-02-19T05:44:46;97967.25;;;8.98;48.45
57086;BME280;42964;42.910;23.792;2023-02-19T05:49:45;97974.13;;;8.96;48.54
57086;BME280;42964;42.910;23.792;2023-02-19T05:54:44;97973.22;;;8.89;48.74
57086;BME280;42964;42.910;23.792;2023-02-19T05:59:43;97977.50;;;8.87;48.83
57086;BME280;42964;42.910;23.792;2023-02-19T06:04:42;97980.16;;;8.93;49.05
57086;BME280;42964;42.910;23.792;2023-02-19T06:09:41;97991.38;;;8.97;49.61
57086;BME280;42964;42.910;23.792;2023-02-19T06:14:40;97992.06;;;8.78;50.36
57086;BME280;42964;42.910;23.792;2023-02-19T06:19:39;97943.66;;;8.66;49.92
57086;BME280;42964;42.910;23.792;2023-02-19T06:24:38;97992.41;;;9.11;50.09
57086;BME280;42964;42.910;23.792;2023-02-19T06:29:37;98001.94;;;9.20;50.05
57086;BME280;42964;42.910;23.792;2023-02-19T06:34:36;97996.78;;;9.20;50.14
57086;BME280;42964;42.910;23.792;2023-02-19T06:39:35;98015.13;;;9.46;50.00
57086;BME280;42964;42.910;23.792;2023-02-19T06:44:34;97967.44;;;9.20;49.94
57086;BME280;42964;42.910;23.792;2023-02-19T06:49:33;97999.69;;;9.60;49.82
57086;BME280;42964;42.910;23.792;2023-02-19T06:54:32;98002.44;;;9.83;49.61
57086;BME280;42964;42.910;23.792;2023-02-19T06:59:31;97928.91;;;9.61;49.31
57086;BME280;42964;42.910;23.792;2023-02-19T07:04:30;98011.22;;;10.08;49.36
57086;BME280;42964;42.910;23.792;2023-02-19T07:09:30;97995.59;;;9.91;49.31
57086;BME280;42964;42.910;23.792;2023-02-19T07:14:29;98012.09;;;10.10;48.68
57086;BME280;42964;42.910;23.792;2023-02-19T07:19:28;98019.94;;;10.23;49.03
57086;BME280;42964;42.910;23.792;2023-02-19T07:24:27;97998.38;;;10.36;48.83
57086;BME280;42964;42.910;23.792;2023-02-19T07:29:26;98019.22;;;10.70;48.55
57086;BME280;42964;42.910;23.792;2023-02-19T07:34:25;98005.47;;;10.94;48.17
57086;BME280;42964;42.910;23.792;2023-02-19T07:39:24;97990.78;;;11.27;47.28
57086;BME280;42964;42.910;23.792;2023-02-19T07:44:23;98004.63;;;11.50;46.73
57086;BME280;42964;42.910;23.792;2023-02-19T07:49:22;98003.72;;;11.83;45.92
57086;BME280;42964;42.910;23.792;2023-02-19T07:54:21;97970.69;;;12.13;45.06
57086;BME280;42964;42.910;23.792;2023-02-19T07:59:20;97999.94;;;12.69;43.61
57086;BME280;42964;42.910;23.792;2023-02-19T08:04:19;98001.44;;;13.08;42.65
57086;BME280;42964;42.910;23.792;2023-02-19T08:09:18;97994.19;;;13.47;42.11
57086;BME280;42964;42.910;23.792;2023-02-19T08:14:17;97996.56;;;13.76;41.87
57086;BME280;42964;42.910;23.792;2023-02-19T08:19:15;97969.53;;;13.87;41.78
57086;BME280;42964;42.910;23.792;2023-02-19T08:24:14;97983.03;;;14.21;40.39
57086;BME280;42964;42.910;23.792;2023-02-19T08:29:13;97982.63;;;14.55;40.74
57086;BME280;42964;42.910;23.792;2023-02-19T08:34:12;97713.16;;;13.07;40.33
57086;BME280;42964;42.910;23.792;2023-02-19T08:39:11;97985.56;;;14.94;40.21
57086;BME280;42964;42.910;23.792;2023-02-19T08:44:10;97975.81;;;15.05;39.97
57086;BME280;42964;42.910;23.792;2023-02-19T08:49:08;97964.38;;;15.12;39.64
57086;BME280;42964;42.910;23.792;2023-02-19T08:54:07;97971.84;;;15.37;39.54
57086;BME280;42964;42.910;23.792;2023-02-19T08:59:06;97966.25;;;15.57;38.92
57086;BME280;42964;42.910;23.792;2023-02-19T09:04:05;97855.63;;;15.03;39.18
57086;BME280;42964;42.910;23.792;2023-02-19T09:09:04;97963.19;;;15.83;38.48
57086;BME280;42964;42.910;23.792;2023-02-19T09:14:03;97944.75;;;15.91;38.42
57086;BME280;42964;42.910;23.792;2023-02-19T09:19:05;97945.28;;;16.06;38.42
57086;BME280;42964;42.910;23.792;2023-02-19T09:24:04;97943.50;;;16.08;38.45
57086;BME280;42964;42.910;23.792;2023-02-19T09:29:03;97931.19;;;16.14;38.03
57086;BME280;42964;42.910;23.792;2023-02-19T09:34:02;97934.34;;;16.29;38.61
57086;BME280;42964;42.910;23.792;2023-02-19T09:39:00;97934.97;;;16.41;37.34
57086;BME280;42964;42.910;23.792;2023-02-19T09:44:02;97932.38;;;16.80;36.86
57086;BME280;42964;42.910;23.792;2023-02-19T09:49:09;97930.97;;;17.04;36.05
57086;BME280;42964;42.910;23.792;2023-02-19T09:54:19;97936.63;;;17.23;35.96
57086;BME280;42964;42.910;23.792;2023-02-19T09:59:24;97825.59;;;16.89;35.92
57086;BME280;42964;42.910;23.792;2023-02-19T10:04:23;97898.75;;;17.66;35.53
57086;BME280;42964;42.910;23.792;2023-02-19T10:09:24;97868.44;;;17.55;34.83
57086;BME280;42964;42.910;23.792;2023-02-19T10:14:38;97904.13;;;17.94;35.54
57086;BME280;42964;42.910;23.792;2023-02-19T10:19:38;97891.41;;;18.11;34.57
57086;BME280;42964;42.910;23.792;2023-02-19T10:24:40;97869.94;;;17.97;34.39
57086;BME280;42964;42.910;23.792;2023-02-19T10:29:45;97855.88;;;18.00;34.71
57086;BME280;42964;42.910;23.792;2023-02-19T10:34:46;97810.72;;;17.87;34.80
57086;BME280;42964;42.910;23.792;2023-02-19T10:39:46;97840.53;;;18.15;34.30
57086;BME280;42964;42.910;23.792;2023-02-19T10:44:56;97820.81;;;18.01;34.52
57086;BME280;42964;42.910;23.792;2023-02-19T10:49:57;97805.00;;;18.02;34.55
57086;BME280;42964;42.910;23.792;2023-02-19T11:00:24;97793.25;;;18.15;33.78
57086;BME280;42964;42.910;23.792;2023-02-19T11:05:24;97777.13;;;17.98;33.33
57086;BME280;42964;42.910;23.792;2023-02-19T11:10:37;97775.47;;;18.24;34.06
57086;BME280;42964;42.910;23.792;2023-02-19T11:15:37;97774.44;;;18.29;33.41
57086;BME280;42964;42.910;23.792;2023-02-19T11:20:48;97732.34;;;18.03;33.25
57086;BME280;42964;42.910;23.792;2023-02-19T11:25:49;97720.25;;;18.25;33.25
57086;BME280;42964;42.910;23.792;2023-02-19T11:30:48;97742.25;;;18.49;33.32
57086;BME280;42964;42.910;23.792;2023-02-19T11:35:53;97718.00;;;18.41;33.49
57086;BME280;42964;42.910;23.792;2023-02-19T11:41:17;97720.06;;;18.58;33.05
57086;BME280;42964;42.910;23.792;2023-02-19T11:46:32;97708.88;;;18.78;32.94
57086;BME280;42964;42.910;23.792;2023-02-19T12:03:16;97685.13;;;18.81;32.19
57086;BME280;42964;42.910;23.792;2023-02-19T12:08:44;97669.59;;;18.48;32.29
57086;BME280;42964;42.910;23.792;2023-02-19T12:14:15;97654.03;;;18.67;32.34
57086;BME280;42964;42.910;23.792;2023-02-19T12:25:00;97644.66;;;18.85;31.73
57086;BME280;42964;42.910;23.792;2023-02-19T12:46:17;97599.22;;;19.29;31.04
57086;BME280;42964;42.910;23.792;2023-02-19T12:51:24;97590.19;;;19.12;30.46
57086;BME280;42964;42.910;23.792;2023-02-19T12:56:29;97585.47;;;19.20;30.96
57086;BME280;42964;42.910;23.792;2023-02-19T13:01:37;97579.56;;;18.92;30.81
57086;BME280;42964;42.910;23.792;2023-02-19T13:06:42;97578.56;;;18.94;30.91
57086;BME280;42964;42.910;23.792;2023-02-19T13:11:49;97564.19;;;19.05;30.07
57086;BME280;42964;42.910;23.792;2023-02-19T13:16:56;97537.91;;;18.81;30.02
57086;BME280;42964;42.910;23.792;2023-02-19T13:22:10;97552.47;;;19.35;30.30
57086;BME280;42964;42.910;23.792;2023-02-19T13:27:42;97545.00;;;19.47;29.64
57086;BME280;42964;42.910;23.792;2023-02-19T13:37:53;97532.31;;;19.78;29.33
57086;BME280;42964;42.910;23.792;2023-02-19T13:42:55;97516.69;;;19.96;29.03
57086;BME280;42964;42.910;23.792;2023-02-19T13:52:56;97511.38;;;20.16;27.79
57086;BME280;42964;42.910;23.792;2023-02-19T14:08:52;97491.41;;;20.52;27.58
57086;BME280;42964;42.910;23.792;2023-02-19T14:13:54;97454.75;;;20.47;26.73
57086;BME280;42964;42.910;23.792;2023-02-19T14:18:53;97476.88;;;21.00;26.13
57086;BME280;42964;42.910;23.792;2023-02-19T14:23:57;97472.13;;;21.27;26.14
57086;BME280;42964;42.910;23.792;2023-02-19T14:28:57;97458.91;;;21.27;25.66
57086;BME280;42964;42.910;23.792;2023-02-19T14:34:04;97421.25;;;20.87;26.58
57086;BME280;42964;42.910;23.792;2023-02-19T14:44:06;97462.72;;;20.64;26.44
57086;BME280;42964;42.910;23.792;2023-02-19T14:49:20;97455.28;;;20.54;25.94
57086;BME280;42964;42.910;23.792;2023-02-19T14:54:36;97451.38;;;20.43;26.53
57086;BME280;42964;42.910;23.792;2023-02-19T14:59:36;97439.72;;;20.28;26.81
57086;BME280;42964;42.910;23.792;2023-02-19T15:04:36;97438.50;;;20.17;27.39
57086;BME280;42964;42.910;23.792;2023-02-19T15:09:38;97447.81;;;20.05;27.60
57086;BME280;42964;42.910;23.792;2023-02-19T15:14:39;97448.59;;;19.86;28.05
57086;BME280;42964;42.910;23.792;2023-02-19T15:19:38;97439.66;;;19.70;28.55
57086;BME280;42964;42.910;23.792;2023-02-19T15:24:42;97437.63;;;19.55;28.41
57086;BME280;42964;42.910;23.792;2023-02-19T15:29:46;97442.47;;;19.43;28.83
57086;BME280;42964;42.910;23.792;2023-02-19T15:34:56;97455.34;;;19.29;29.27
57086;BME280;42964;42.910;23.792;2023-02-19T15:39:56;97433.91;;;18.96;29.28
57086;BME280;42964;42.910;23.792;2023-02-19T15:50:07;97449.19;;;18.63;30.06
57086;BME280;42964;42.910;23.792;2023-02-19T15:55:32;97458.13;;;18.35;30.00
57086;BME280;42964;42.910;23.792;2023-02-19T16:00:56;97449.38;;;18.11;30.62
57086;BME280;42964;42.910;23.792;2023-02-19T16:06:05;97454.09;;;17.74;31.75
57086;BME280;42964;42.910;23.792;2023-02-19T16:16:34;97457.78;;;16.89;33.25
57086;BME280;42964;42.910;23.792;2023-02-19T16:21:36;97473.97;;;16.13;35.93
57086;BME280;42964;42.910;23.792;2023-02-19T16:26:43;97503.28;;;15.93;36.67
57086;BME280;42964;42.910;23.792;2023-02-19T16:31:49;97519.47;;;15.73;37.57
57086;BME280;42964;42.910;23.792;2023-02-19T16:36:48;97531.94;;;15.63;38.31
57086;BME280;42964;42.910;23.792;2023-02-19T16:46:51;97533.44;;;15.36;38.82
57086;BME280;42964;42.910;23.792;2023-02-19T16:51:51;97573.50;;;15.38;39.25
57086;BME280;42964;42.910;23.792;2023-02-19T16:56:51;97584.31;;;15.22;39.97
57086;BME280;42964;42.910;23.792;2023-02-19T17:01:50;97595.06;;;15.09;40.65
57086;BME280;42964;42.910;23.792;2023-02-19T17:06:49;97605.94;;;14.89;41.16
57086;BME280;42964;42.910;23.792;2023-02-19T17:11:47;97614.81;;;14.80;41.42
57086;BME280;42964;42.910;23.792;2023-02-19T17:16:46;97609.03;;;14.62;41.80
57086;BME280;42964;42.910;23.792;2023-02-19T17:21:45;97635.25;;;14.56;42.44
57086;BME280;42964;42.910;23.792;2023-02-19T17:26:44;97640.72;;;14.44;42.73
57086;BME280;42964;42.910;23.792;2023-02-19T17:31:43;97648.63;;;14.39;43.35
57086;BME280;42964;42.910;23.792;2023-02-19T17:36:42;97655.63;;;14.37;43.30
57086;BME280;42964;42.910;23.792;2023-02-19T17:41:43;97654.94;;;14.26;44.08
57086;BME280;42964;42.910;23.792;2023-02-19T17:46:42;97660.38;;;14.15;44.91
57086;BME280;42964;42.910;23.792;2023-02-19T17:51:43;97661.38;;;14.07;44.92
57086;BME280;42964;42.910;23.792;2023-02-19T17:56:42;97666.75;;;13.96;45.34
57086;BME280;42964;42.910;23.792;2023-02-19T18:01:43;97671.38;;;13.78;45.62
57086;BME280;42964;42.910;23.792;2023-02-19T18:06:43;97674.13;;;13.68;45.39
57086;BME280;42964;42.910;23.792;2023-02-19T18:11:43;97682.13;;;13.59;45.55
57086;BME280;42964;42.910;23.792;2023-02-19T18:16:47;97639.06;;;13.27;45.41
57086;BME280;42964;42.910;23.792;2023-02-19T18:21:46;97697.13;;;13.38;45.84
57086;BME280;42964;42.910;23.792;2023-02-19T18:26:44;97698.09;;;13.31;45.71
57086;BME280;42964;42.910;23.792;2023-02-19T18:31:43;97705.34;;;13.07;47.02
57086;BME280;42964;42.910;23.792;2023-02-19T18:36:47;97633.34;;;12.18;47.98
57086;BME280;42964;42.910;23.792;2023-02-19T18:41:50;97723.28;;;12.51;48.56
57086;BME280;42964;42.910;23.792;2023-02-19T18:46:49;97738.94;;;12.45;48.95
57086;BME280;42964;42.910;23.792;2023-02-19T18:51:48;97741.56;;;12.44;49.18
57086;BME280;42964;42.910;23.792;2023-02-19T18:56:47;97749.34;;;12.45;48.59
57086;BME280;42964;42.910;23.792;2023-02-19T19:01:46;97753.66;;;12.48;48.80
57086;BME280;42964;42.910;23.792;2023-02-19T19:06:44;97764.16;;;12.42;49.07
57086;BME280;42964;42.910;23.792;2023-02-19T19:11:43;97758.13;;;12.35;49.80
57086;BME280;42964;42.910;23.792;2023-02-19T19:16:44;97718.41;;;12.05;49.78
57086;BME280;42964;42.910;23.792;2023-02-19T19:21:43;97760.75;;;12.24;49.85
57086;BME280;42964;42.910;23.792;2023-02-19T19:26:43;97778.97;;;12.29;49.64
57086;BME280;42964;42.910;23.792;2023-02-19T19:31:43;97775.47;;;12.33;49.64
57086;BME280;42964;42.910;23.792;2023-02-19T19:36:43;97777.25;;;12.28;50.00
57086;BME280;42964;42.910;23.792;2023-02-19T19:41:42;97798.94;;;12.28;50.25
57086;BME280;42964;42.910;23.792;2023-02-19T19:46:42;97797.22;;;12.27;49.50
57086;BME280;42964;42.910;23.792;2023-02-19T19:51:43;97796.28;;;12.32;50.10
57086;BME280;42964;42.910;23.792;2023-02-19T19:56:45;97800.63;;;12.34;49.94
57086;BME280;42964;42.910;23.792;2023-02-19T20:01:51;97808.50;;;12.17;50.45
57086;BME280;42964;42.910;23.792;2023-02-19T20:06:51;97816.34;;;12.14;50.03
57086;BME280;42964;42.910;23.792;2023-02-19T20:11:51;97820.66;;;12.15;50.48
57086;BME280;42964;42.910;23.792;2023-02-19T20:16:52;97810.38;;;12.00;50.69
57086;BME280;42964;42.910;23.792;2023-02-19T20:21:53;97811.22;;;11.99;50.98
57086;BME280;42964;42.910;23.792;2023-02-19T20:26:53;97807.78;;;11.94;51.33
57086;BME280;42964;42.910;23.792;2023-02-19T20:31:52;97817.34;;;11.95;51.39
57086;BME280;42964;42.910;23.792;2023-02-19T20:36:51;97816.44;;;11.94;51.36
57086;BME280;42964;42.910;23.792;2023-02-19T20:41:50;97813.84;;;11.97;51.38
57086;BME280;42964;42.910;23.792;2023-02-19T20:46:50;97817.34;;;11.95;51.26
57086;BME280;42964;42.910;23.792;2023-02-19T20:51:51;97809.53;;;11.95;52.03
57086;BME280;42964;42.910;23.792;2023-02-19T20:56:54;97762.91;;;11.58;51.69
57086;BME280;42964;42.910;23.792;2023-02-19T21:01:54;97771.56;;;11.60;51.93
57086;BME280;42964;42.910;23.792;2023-02-19T21:06:54;97781.16;;;11.47;51.84
57086;BME280;42964;42.910;23.792;2023-02-19T21:11:52;97840.00;;;11.63;52.17
57086;BME280;42964;42.910;23.792;2023-02-19T21:16:51;97839.13;;;11.66;51.45
57086;BME280;42964;42.910;23.792;2023-02-19T21:21:51;97851.28;;;11.61;52.36
57086;BME280;42964;42.910;23.792;2023-02-19T21:26:50;97846.13;;;11.42;53.46
57086;BME280;42964;42.910;23.792;2023-02-19T21:31:52;97844.41;;;11.41;53.96
57086;BME280;42964;42.910;23.792;2023-02-19T21:36:54;97853.09;;;11.34;53.75
57086;BME280;42964;42.910;23.792;2023-02-19T21:41:53;97869.53;;;11.29;53.84
57086;BME280;42964;42.910;23.792;2023-02-19T21:46:52;97877.41;;;10.96;54.51
57086;BME280;42964;42.910;23.792;2023-02-19T21:51:52;97877.38;;;10.90;54.96
57086;BME280;42964;42.910;23.792;2023-02-19T21:56:51;97879.13;;;10.88;54.55
57086;BME280;42964;42.910;23.792;2023-02-19T22:01:50;97871.28;;;10.83;54.72
57086;BME280;42964;42.910;23.792;2023-02-19T22:06:52;97792.59;;;10.31;55.46
57086;BME280;42964;42.910;23.792;2023-02-19T22:11:52;97873.88;;;10.74;55.92
57086;BME280;42964;42.910;23.792;2023-02-19T22:16:51;97883.41;;;10.65;55.61
57086;BME280;42964;42.910;23.792;2023-02-19T22:21:49;97886.00;;;10.55;55.75
57086;BME280;42964;42.910;23.792;2023-02-19T22:26:49;97880.75;;;10.20;57.47
57086;BME280;42964;42.910;23.792;2023-02-19T22:31:49;97896.34;;;10.31;57.79
57086;BME280;42964;42.910;23.792;2023-02-19T22:36:48;97902.31;;;10.05;58.80
57086;BME280;42964;42.910;23.792;2023-02-19T22:41:48;97904.03;;;9.98;59.35
57086;BME280;42964;42.910;23.792;2023-02-19T22:46:56;97910.88;;;9.90;59.48
57086;BME280;42964;42.910;23.792;2023-02-19T22:52:04;97900.44;;;9.73;60.12
57086;BME280;42964;42.910;23.792;2023-02-19T22:57:05;97911.63;;;9.63;60.82
57086;BME280;42964;42.910;23.792;2023-02-19T23:02:04;97907.28;;;9.56;60.83
57086;BME280;42964;42.910;23.792;2023-02-19T23:07:04;97909.81;;;9.50;61.26
57086;BME280;42964;42.910;23.792;2023-02-19T23:12:09;97842.09;;;8.88;62.25
57086;BME280;42964;42.910;23.792;2023-02-19T23:17:08;97913.09;;;9.26;61.78
57086;BME280;42964;42.910;23.792;2023-02-19T23:22:07;97921.66;;;9.17;62.24
57086;BME280;42964;42.910;23.792;2023-02-19T23:27:06;97927.69;;;9.11;62.38
57086;BME280;42964;42.910;23.792;2023-02-19T23:32:05;97879.94;;;8.77;62.62
57086;BME280;42964;42.910;23.792;2023-02-19T23:37:04;97921.53;;;9.02;62.41
57086;BME280;42964;42.910;23.792;2023-02-19T23:42:04;97921.53;;;8.99;62.50
57086;BME280;42964;42.910;23.792;2023-02-19T23:47:03;97925.84;;;9.01;62.53
57086;BME280;42964;42.910;23.792;2023-02-19T23:52:02;97934.41;;;8.91;62.89
57086;BME280;42964;42.910;23.792;2023-02-19T23:57:01;97945.53;;;8.79;63.15
